• Join FlightAware (Why Join?)
  • Login
  • US Flag 
03:39AM EST


 

Airport Tracker/Info


-or-


 

Live Flight TrackerFlight Track Log ✈ AWE1710 ✈ 26-Jul-2013 ✈ KDEN - KCLT

Flight Track Log - Related Links

Times and Time Zones

All times are in EDT time to prevent confusion due to time zone crossing. See the AWE1710 flight status page for this flight to view local times or setup timezone preferences in your user account.

Time Position Orientation Groundspeed Altitude Reporting Facility
EDT Latitude Longitude Course Direction KTS MPH feet Rate Location/Type
08:02AM 39.8590 -104.6790 55° Northeast  Level FlightAware
08:06AM 39.8590 -104.6790 111° Southeast 60 Level FlightAware
08:09AM 39.8302 -104.3481 90° East  Level Estimated
08:13AM 39.8341 -104.3911 90° East  Level Estimated
08:21AM 39.8285 -104.3281 90° East  Level Estimated
08:22AM 39.8613 -104.1753 74° East  Level FlightAware Approximate
08:22AM 39.8590 -104.6800 74° East  Level FlightAware
08:25AM 39.8236 -104.2756 90° East  Level Estimated
08:25AM 39.8590 -104.6790 90° East  Level FlightAware
08:28AM 39.8262 -104.3034 90° East  Level Estimated
08:29AM 39.8121 -104.1460 90° East  Level Estimated
08:30AM 39.7977 -103.9886 90° East  Level Estimated
08:31AM 39.7832 -103.8312 90° East  Level Estimated
08:32AM 39.7684 -103.6740 83° East  Level Estimated
08:33AM 39.7534 -103.5167 82° East  Level Estimated
08:34AM 39.8311 -103.3947 50° Northeast  Level FlightAware Approximate
08:35AM 39.8152 -103.2375 85° East  Level Estimated
08:36AM 39.8877 -103.1100 53° Northeast  Level FlightAware Approximate
08:37AM 39.8708 -102.9529 81° East  Level Estimated
08:38AM 39.8537 -102.7958 81° East  Level Estimated
08:39AM 39.9155 -102.6590 60° Northeast  Level FlightAware Approximate
08:40AM 39.8975 -102.5020 83° East  Level Estimated
08:50AM 39.8610 -104.6710 84° East 30 35  Level FlightAware
08:51AM 39.8620 -104.6640 79° East 32 37 660 Level FlightAware
08:52AM 39.8610 -104.6650 218° Southwest 15 17 780 Level FlightAware
08:53AM 39.8620 -104.6630 57° Northeast 28 32 960 Level FlightAware
08:53AM 39.8630 -104.6630 360° North 15 17 1,020 Level FlightAware
08:54AM 39.8650 -104.6630 360° North 28 32 1,140 Level FlightAware
08:54AM 39.8650 -104.6610 90° East 33 38 1,260 Level FlightAware
08:55AM 39.8650 -104.6580 90° East 18 21 1,440 Level FlightAware
08:57AM 39.8667 -104.3820 90° East  Level FlightAware Approximate
08:58AM 39.8667 -104.2279 90° East  Level FlightAware Approximate
08:58AM 39.8326 -104.6420 90° East 176 203 5,700  Level FlightAware ADS-B
08:58AM 39.8300 -104.6410 164° South 178 205 5,800 1,980 Climbing FlightAware ADS-B
08:58AM 39.8273 -104.6410 180° South 179 206 5,900 2,220 Climbing FlightAware ADS-B
08:58AM 39.8237 -104.6400 168° South 177 204 6,100 2,640 Climbing FlightAware ADS-B
08:58AM 39.8202 -104.6380 156° South 177 204 6,300 2,640 Climbing FlightAware ADS-B
08:58AM 39.8173 -104.6360 152° Southeast 178 205 6,500 1,620 Climbing FlightAware ADS-B
08:59AM 39.8052 -104.6250 145° Southeast 184 212 6,900 1,080 Climbing FlightAware ADS-B
08:59AM 39.7944 -104.6140 142° Southeast 197 227 7,100 720 Climbing FlightAware ADS-B
08:59AM 39.7819 -104.6020 144° Southeast 213 245 7,300 900 Climbing FlightAware ADS-B
08:59AM 39.7691 -104.5890 142° Southeast 228 262 7,600 900 Climbing FlightAware ADS-B
09:00AM 39.7550 -104.5750 143° Southeast 242 278 7,800 900 Climbing FlightAware ADS-B
09:00AM 39.7402 -104.5600 142° Southeast 259 298 8,100 1,080 Climbing FlightAware ADS-B
09:00AM 39.7240 -104.5440 143° Southeast 274 315 8,400 1,200 Climbing FlightAware ADS-B
09:00AM 39.7153 -104.5350 141° Southeast 283 326 8,600 960 Climbing FlightAware ADS-B
09:00AM 39.7122 -104.5320 143° Southeast 286 329 8,600 1,320 Level FlightAware ADS-B
09:01AM 39.7069 -104.5240 131° Southeast 290 334 8,800 1,800 Climbing FlightAware ADS-B
09:01AM 39.7035 -104.5170 122° Southeast 292 336 8,900 1,500 Climbing FlightAware ADS-B
09:01AM 39.7016 -104.5120 116° Southeast 294 338 9,000 1,680 Climbing FlightAware ADS-B
09:01AM 39.6999 -104.5070 114° Southeast 294 338 9,100 3,000 Climbing FlightAware ADS-B
09:01AM 39.6987 -104.5020 107° East 294 338 9,300 2,220 Climbing FlightAware ADS-B
09:01AM 39.6979 -104.4930 97° East 294 338 9,400 1,980 Climbing FlightAware ADS-B
09:01AM 39.6976 -104.4850 93° East 294 338 9,600 3,000 Climbing FlightAware ADS-B
09:01AM 39.6983 -104.4790 81° East 293 337 9,800 2,520 Climbing FlightAware ADS-B
09:01AM 39.6991 -104.4730 80° East 294 338 9,900 2,220 Climbing FlightAware ADS-B
09:01AM 39.7010 -104.4650 73° East 294 338 10,100 2,640 Climbing FlightAware ADS-B
09:01AM 39.7036 -104.4590 61° Northeast 294 338 10,300 2,160 Climbing FlightAware ADS-B
09:02AM 39.7258 -104.4110 59° Northeast 300 345 11,400 1,980 Climbing FlightAware ADS-B
09:02AM 39.7332 -104.3950 59° Northeast 303 349 11,700 1,860 Climbing FlightAware ADS-B
09:02AM 39.7380 -104.3790 69° East 307 353 12,000 1,980 Climbing FlightAware ADS-B
09:03AM 39.7507 -104.3250 73° East 318 366 13,000 2,040 Climbing FlightAware ADS-B
09:03AM 39.7638 -104.2680 73° East 322 371 14,100 1,560 Climbing FlightAware ADS-B
09:04AM 39.7767 -104.2100 74° East 346 398 14,600 840 Climbing FlightAware ADS-B
09:04AM 39.7912 -104.1470 73° East 372 428 15,000 780 Climbing FlightAware ADS-B
09:05AM 39.8056 -104.0830 74° East 394 453 15,400 960 Climbing FlightAware ADS-B
09:05AM 39.8211 -104.0130 74° East 403 464 16,000 1,560 Climbing FlightAware ADS-B
09:06AM 39.8374 -103.9420 73° East 405 466 17,000 1,980 Climbing FlightAware ADS-B
09:06AM 39.8534 -103.8710 74° East 409 471 18,000 1,620 Climbing FlightAware ADS-B
09:07AM 39.8697 -103.7980 74° East 416 479 18,700 1,440 Climbing FlightAware ADS-B
09:07AM 39.8797 -103.7520 74° East 422 486 19,200 1,500 Climbing FlightAware ADS-B
09:07AM 39.8849 -103.7210 78° East 426 490 19,500 1,500 Climbing FlightAware ADS-B
09:08AM 39.8941 -103.6440 81° East 432 497 20,300 1,380 Climbing FlightAware ADS-B
09:08AM 39.9031 -103.5650 82° East 438 504 20,900 1,380 Climbing FlightAware ADS-B
09:09AM 39.9121 -103.4860 82° East 441 507 21,700 1,500 Climbing FlightAware ADS-B
09:09AM 39.9211 -103.4070 82° East 444 511 22,400 1,260 Climbing FlightAware ADS-B
09:10AM 39.9304 -103.3270 81° East 450 518 23,000 1,140 Climbing FlightAware ADS-B
09:10AM 39.9393 -103.2450 82° East 455 524 23,600 1,200 Climbing FlightAware ADS-B
09:11AM 39.9486 -103.1630 82° East 459 528 24,200 1,140 Climbing FlightAware ADS-B
09:11AM 39.9579 -103.0790 82° East 463 533 24,800 1,080 Climbing FlightAware ADS-B
09:12AM 39.9670 -102.9960 82° East 469 540 25,300 780 Climbing FlightAware ADS-B
09:12AM 39.9763 -102.9110 82° East 477 549 25,600 780 Climbing FlightAware ADS-B
09:13AM 39.9857 -102.8250 82° East 483 556 26,100 960 Climbing FlightAware ADS-B
09:13AM 39.9949 -102.7380 82° East 486 559 26,600 780 Climbing FlightAware ADS-B
09:14AM 40.0045 -102.6480 82° East 494 568 26,900 660 Climbing FlightAware ADS-B
09:14AM 40.0142 -102.5560 82° East 499 574 27,300 780 Climbing FlightAware ADS-B
09:15AM 40.0237 -102.4660 82° East 502 578 27,700 780 Climbing FlightAware ADS-B
09:15AM 40.0333 -102.3750 82° East 504 580 28,100 840 Climbing FlightAware ADS-B
09:16AM 40.0425 -102.2840 82° East 507 583 28,600 1,080 Climbing FlightAware ADS-B
09:16AM 40.0518 -102.1920 82° East 505 581 29,200 1,080 Climbing FlightAware ADS-B
09:17AM 40.0611 -102.1020 82° East 504 580 29,700 900 Climbing FlightAware ADS-B
09:17AM 40.0705 -102.0100 82° East 505 581 30,100 840 Climbing FlightAware ADS-B
09:18AM 40.0798 -101.9150 83° East 506 582 30,600 840 Climbing FlightAware ADS-B
09:18AM 40.0890 -101.8230 83° East 507 583 31,000 780 Climbing FlightAware ADS-B
09:19AM 40.0980 -101.7320 83° East 507 583 31,400 900 Climbing FlightAware ADS-B
09:19AM 40.1069 -101.6400 83° East 506 582 31,900 840 Climbing FlightAware ADS-B
09:20AM 40.1156 -101.5490 83° East 505 581 32,300 780 Climbing FlightAware ADS-B
09:20AM 40.1244 -101.4580 83° East 504 580 32,700 660 Climbing FlightAware ADS-B
09:21AM 40.1331 -101.3660 83° East 507 583 33,000 780 Climbing FlightAware ADS-B
09:21AM 40.1419 -101.2740 83° East 502 578 33,500 960 Climbing FlightAware ADS-B
09:22AM 40.1506 -101.1820 83° East 498 573 34,000 720 Climbing FlightAware ADS-B
09:23AM 40.1632 -101.0480 83° East 498 573 34,400 480 Climbing FlightAware ADS-B
09:23AM 40.1697 -100.9686 83° East 500 575 34,700 360 Climbing Denver Center
09:24AM 40.1875 -100.7706 83° East 496 571 35,000 120 Climbing Denver Center
09:25AM 40.1958 -100.5983 86° East 497 572 35,000  Level Denver Center
09:26AM 40.1722 -100.3964 99° East 507 583 35,000  Level Denver Center
09:27AM 40.1433 -100.2233 102° East 511 588 35,000  Level Denver Center
09:28AM 40.1167 -100.0533 102° East 504 580 35,000  Level Denver Center
09:29AM 40.0828 -99.8572 103° East 508 585 35,000  Level Denver Center
09:30AM 40.0539 -99.6800 102° East 503 579 35,000  Level Denver Center
09:31AM 40.0236 -99.5003 102° East 507 583 35,000  Level Denver Center
09:32AM 39.9933 -99.3228 102° East 505 581 35,000  Level Denver Center
09:33AM 39.9628 -99.1469 103° East 501 577 35,000  Level Denver Center
09:39AM 39.7820 -98.1660 103° East 496 571 35,000  Level FlightAware
09:39AM 39.7510 -98.0430 108° East 496 571 35,000  Level FlightAware
09:40AM 39.7220 -97.9300 108° East 496 571 35,000  Level FlightAware
09:41AM 39.6910 -97.8110 109° East 494 568 35,000  Level FlightAware
09:42AM 39.6590 -97.6900 109° East 492 566 35,000  Level FlightAware
09:42AM 39.6280 -97.5700 109° East 490 564 35,000  Level FlightAware
09:43AM 39.5990 -97.4590 109° East 489 563 35,000  Level FlightAware
09:44AM 39.5710 -97.3530 109° East 490 564 35,000  Level FlightAware
09:44AM 39.5440 -97.2490 109° East 490 564 35,000  Level FlightAware
09:45AM 39.5180 -97.1480 108° East 490 564 35,000  Level FlightAware
09:46AM 39.4960 -97.0630 109° East 490 564 35,000  Level FlightAware
09:46AM 39.4540 -96.9150 110° East 493 567 35,000  Level FlightAware
09:47AM 39.4250 -96.8090 109° East 493 567 35,000  Level FlightAware
09:48AM 39.3900 -96.6790 109° East 493 567 35,000  Level FlightAware
09:48AM 39.3590 -96.5650 109° East 492 566 35,000  Level FlightAware
09:49AM 39.3260 -96.4410 109° East 492 566 35,000  Level FlightAware
09:50AM 39.2960 -96.3340 110° East 492 566 35,000  Level FlightAware
09:50AM 39.2650 -96.2210 109° East 491 565 35,000 60 Level FlightAware
09:51AM 39.2380 -96.1260 110° East 489 563 35,100  Climbing FlightAware
09:52AM 39.2030 -95.9980 109° East 487 560 35,000 -120 Descending FlightAware
09:52AM 39.1750 -95.9000 110° East 486 559 35,000  Level FlightAware
09:53AM 39.1480 -95.8020 110° East 486 559 35,000  Level FlightAware
09:54AM 39.1140 -95.6830 110° East 486 559 35,000  Level FlightAware
09:54AM 39.0800 -95.5620 110° East 487 560 35,000  Level FlightAware
09:55AM 39.0540 -95.4700 110° East 487 560 35,000  Level FlightAware
09:56AM 39.0270 -95.3760 110° East 489 563 35,000  Level FlightAware
09:56AM 38.9900 -95.2470 110° East 491 565 35,000  Level FlightAware
09:57AM 38.9550 -95.1240 110° East 494 568 35,000  Level FlightAware
09:58AM 38.9240 -95.0160 110° East 497 572 35,000 60 Level FlightAware
09:58AM 38.8880 -94.8940 111° Southeast 498 573 35,100 60 Climbing FlightAware
09:59AM 38.8550 -94.7820 111° Southeast 500 575 35,100  Level FlightAware
10:00AM 38.8230 -94.6720 110° East 499 574 35,100  Level FlightAware
10:00AM 38.7940 -94.5720 110° East 499 574 35,100  Level FlightAware
10:01AM 38.7710 -94.4940 111° Southeast 497 572 35,100  Level FlightAware
10:02AM 38.7340 -94.3700 111° Southeast 493 567 35,100 -120 Level FlightAware
10:02AM 38.7010 -94.2590 111° Southeast 490 564 35,000 -120 Descending FlightAware
10:03AM 38.6650 -94.1380 111° Southeast 488 562 35,000  Level FlightAware
10:04AM 38.6510 -94.0250 99° East 494 568 35,000  Level FlightAware
10:04AM 38.6670 -93.9130 80° East 495 570 35,000  Level FlightAware
10:05AM 38.6880 -93.8080 76° East 495 570 35,000  Level FlightAware
10:06AM 38.7100 -93.6940 76° East 498 573 35,000  Level FlightAware
10:06AM 38.7350 -93.5710 75° East 502 578 35,000  Level FlightAware
10:07AM 38.7620 -93.4590 73° East 506 582 35,000  Level FlightAware
10:08AM 38.7930 -93.3480 70° East 509 586 35,000  Level FlightAware
10:08AM 38.8290 -93.2210 70° East 514 592 35,000 60 Level FlightAware
10:09AM 38.8570 -93.1180 71° East 517 595 35,100 60 Climbing FlightAware
10:10AM 38.8890 -93.0020 70° East 516 594 35,100  Level FlightAware
10:10AM 38.9190 -92.8850 72° East 516 594 35,100  Level FlightAware
10:11AM 38.9500 -92.7640 72° East 515 593 35,100 -120 Level FlightAware
10:12AM 38.9830 -92.6360 72° East 513 590 35,000 -120 Descending FlightAware
10:12AM 39.0100 -92.5320 71° East 513 590 35,000  Level FlightAware
10:13AM 39.0390 -92.3860 76° East 510 587 35,000  Level FlightAware
10:14AM 39.0460 -92.2780 85° East 508 585 35,000  Level FlightAware
10:15AM 38.9940 -92.0910 110° East 491 565 35,000  Level FlightAware
10:16AM 38.9410 -91.9800 122° Southeast 492 566 35,000  Level FlightAware
10:17AM 38.8790 -91.8530 122° Southeast 493 567 35,000  Level FlightAware
10:17AM 38.8270 -91.7480 122° Southeast 495 570 35,000  Level FlightAware
10:18AM 38.7790 -91.6490 122° Southeast 496 571 35,000  Level FlightAware
10:19AM 38.7250 -91.5400 122° Southeast 497 572 35,000  Level FlightAware
10:19AM 38.6830 -91.4560 123° Southeast 497 572 35,000  Level FlightAware
10:20AM 38.6300 -91.3490 122° Southeast 500 575 35,000  Level FlightAware
10:21AM 38.5760 -91.2410 123° Southeast 500 575 35,000 60 Level FlightAware
10:21AM 38.5400 -91.1680 122° Southeast 499 574 35,100 60 Climbing FlightAware
10:22AM 38.4860 -91.0600 123° Southeast 495 570 35,100 -120 Level FlightAware
10:23AM 38.4270 -90.9440 123° Southeast 492 566 35,000 -120 Descending FlightAware
10:23AM 38.3780 -90.8460 123° Southeast 489 563 35,000  Level FlightAware
10:24AM 38.3330 -90.7590 123° Southeast 488 562 35,000  Level FlightAware
10:25AM 38.2860 -90.6640 122° Southeast 488 562 35,000  Level FlightAware
10:25AM 38.2310 -90.5550 123° Southeast 488 562 35,000  Level FlightAware
10:26AM 38.1690 -90.4360 124° Southeast 490 564 35,000  Level FlightAware
10:27AM 38.1140 -90.3280 123° Southeast 492 566 35,000  Level FlightAware
10:28AM 38.0670 -90.2380 124° Southeast 492 566 35,000  Level FlightAware
10:28AM 38.0190 -90.1450 123° Southeast 493 567 35,000  Level FlightAware
10:29AM 37.9650 -90.0410 123° Southeast 495 570 35,000  Level FlightAware
10:30AM 37.9110 -89.9360 123° Southeast 497 572 35,000  Level FlightAware
10:30AM 37.8640 -89.8450 123° Southeast 498 573 35,000  Level FlightAware
10:31AM 37.8030 -89.7280 123° Southeast 500 575 35,000  Level FlightAware
10:32AM 37.7630 -89.6510 123° Southeast 500 575 35,000  Level FlightAware
10:33AM 37.6780 -89.4900 124° Southeast 501 577 35,000  Level FlightAware
10:33AM 37.6210 -89.3820 124° Southeast 500 575 35,000  Level FlightAware
10:34AM 37.5690 -89.2840 124° Southeast 498 573 35,000  Level FlightAware
10:35AM 37.5150 -89.1820 124° Southeast 497 572 35,000  Level FlightAware
10:35AM 37.4640 -89.0860 124° Southeast 495 570 35,000  Level FlightAware
10:36AM 37.4100 -88.9850 124° Southeast 492 566 35,000  Level FlightAware
10:37AM 37.3590 -88.8900 124° Southeast 490 564 35,000  Level FlightAware
10:38AM 37.3010 -88.7830 124° Southeast 489 563 35,000  Level FlightAware
10:38AM 37.2480 -88.6840 124° Southeast 487 560 35,000  Level FlightAware
10:39AM 37.2040 -88.6030 124° Southeast 487 560 35,000  Level FlightAware
10:40AM 37.1490 -88.5000 124° Southeast 486 559 35,000  Level FlightAware
10:41AM 37.0460 -88.3110 124° Southeast 490 564 35,000  Level FlightAware
10:42AM 36.9900 -88.2080 124° Southeast 490 564 35,000  Level FlightAware
10:43AM 36.8900 -88.0260 124° Southeast 492 566 35,000  Level FlightAware
10:44AM 36.8440 -87.9430 125° Southeast 491 565 35,100  Climbing FlightAware
10:44AM 36.7970 -87.8270 117° Southeast 493 567 35,000 -120 Descending FlightAware
10:45AM 36.7610 -87.7100 111° Southeast 493 567 35,000  Level FlightAware
10:46AM 36.7280 -87.6030 111° Southeast 494 568 35,000  Level FlightAware
10:46AM 36.6920 -87.4860 111° Southeast 493 567 35,000  Level FlightAware
10:47AM 36.6660 -87.4020 111° Southeast 492 566 35,000  Level FlightAware
10:48AM 36.6300 -87.2850 111° Southeast 492 566 35,000  Level FlightAware
10:48AM 36.5970 -87.1810 112° Southeast 491 565 35,000  Level FlightAware
10:49AM 36.5670 -87.0860 111° Southeast 491 565 35,000  Level FlightAware
10:50AM 36.5310 -86.9710 111° Southeast 491 565 35,000  Level FlightAware
10:50AM 36.4980 -86.8640 111° Southeast 490 564 35,000  Level FlightAware
10:51AM 36.4610 -86.7490 112° Southeast 488 562 35,000  Level FlightAware
10:52AM 36.4270 -86.6400 111° Southeast 488 562 35,000 -300 Level FlightAware
10:52AM 36.3930 -86.5350 112° Southeast 486 559 34,600 -720 Descending FlightAware
10:53AM 36.3580 -86.4230 111° Southeast 482 555 34,000 -960 Descending FlightAware
10:54AM 36.3240 -86.3190 112° Southeast 479 551 33,300 -1,020 Descending FlightAware
10:55AM 36.2940 -86.2240 111° Southeast 478 550 32,700 -960 Descending FlightAware
10:55AM 36.2602 -86.1205 112° Southeast 482 555 32,100 -1,020 Descending FlightAware ADS-B
10:56AM 36.2341 -86.0398 112° Southeast 477 549 31,500 -1,080 Descending FlightAware ADS-B
10:56AM 36.2076 -85.9584 112° Southeast 472 543 31,000 -360 Descending FlightAware ADS-B
10:57AM 36.1639 -85.8248 112° Southeast 476 548 31,000  Level FlightAware ADS-B
10:58AM 36.1392 -85.7485 112° Southeast 476 548 31,000  Level FlightAware ADS-B
10:58AM 36.1132 -85.6698 112° Southeast 479 551 31,000  Level FlightAware ADS-B
10:59AM 36.0883 -85.5936 112° Southeast 478 550 31,000  Level FlightAware ADS-B
10:59AM 36.0694 -85.5351 112° Southeast 477 549 31,000  Level FlightAware ADS-B
10:59AM 36.0522 -85.4676 107° East 476 548 31,000  Level FlightAware ADS-B
11:00AM 36.0384 -85.3863 102° East 476 548 31,000  Level FlightAware ADS-B
11:01AM 36.0306 -85.3043 97° East 475 547 31,000  Level FlightAware ADS-B
11:01AM 36.0239 -85.2225 96° East 480 552 31,000  Level FlightAware ADS-B
11:02AM 36.0168 -85.1391 96° East 490 564 31,000  Level FlightAware ADS-B
11:02AM 36.0093 -85.0521 96° East 493 567 31,000  Level FlightAware ADS-B
11:03AM 36.0017 -84.9652 96° East 493 567 31,000  Level FlightAware ADS-B
11:03AM 35.9941 -84.8789 96° East 493 567 31,000  Level FlightAware ADS-B
11:04AM 35.9869 -84.7929 96° East 493 567 31,000  Level FlightAware ADS-B
11:04AM 35.9795 -84.7088 96° East 493 567 31,000  Level FlightAware ADS-B
11:05AM 35.9720 -84.6244 96° East 493 567 31,000  Level FlightAware ADS-B
11:05AM 35.9645 -84.5404 96° East 492 566 31,000  Level FlightAware ADS-B
11:06AM 35.9559 -84.4472 96° East 491 565 31,000  Level FlightAware ADS-B
11:06AM 35.9470 -84.3479 96° East 491 565 31,000 -480 Level FlightAware ADS-B
11:07AM 35.9370 -84.2376 96° East 495 570 30,400 -960 Descending FlightAware ADS-B
11:07AM 35.9292 -84.1535 97° East 498 573 29,900 -1,020 Descending FlightAware ADS-B
11:08AM 35.9212 -84.0670 96° East 501 577 29,400 -900 Descending FlightAware ADS-B
11:08AM 35.9130 -83.9813 97° East 500 575 29,000 -420 Descending FlightAware ADS-B
11:09AM 35.9061 -83.8995 96° East 501 577 29,000  Level FlightAware ADS-B
11:09AM 35.9036 -83.8094 92° East 499 574 29,000  Level FlightAware ADS-B
11:10AM 35.9021 -83.7191 91° East 496 571 29,000  Level FlightAware ADS-B
11:10AM 35.9007 -83.6314 91° East 496 571 29,000  Level FlightAware ADS-B
11:11AM 35.8989 -83.5419 91° East 494 568 29,000  Level FlightAware ADS-B
11:12AM 35.8968 -83.4458 92° East 493 567 29,000  Level FlightAware ADS-B
11:12AM 35.8952 -83.3576 91° East 494 568 29,000  Level FlightAware ADS-B
11:13AM 35.8932 -83.2587 91° East 494 568 29,000 -300 Level FlightAware ADS-B
11:13AM 35.8911 -83.1723 92° East 495 570 28,700 -780 Descending FlightAware ADS-B
11:14AM 35.8891 -83.0827 92° East 494 568 28,200 -960 Descending FlightAware ADS-B
11:14AM 35.8869 -82.9917 92° East 481 554 27,700 -960 Descending FlightAware ADS-B
11:15AM 35.8849 -82.9104 92° East 468 539 27,200 -1,020 Descending FlightAware ADS-B
11:15AM 35.8829 -82.8291 92° East 463 533 26,700 -1,080 Descending FlightAware ADS-B
11:16AM 35.8808 -82.7461 92° East 459 528 26,100 -1,020 Descending FlightAware ADS-B
11:16AM 35.8787 -82.7172 95° East 459 528 26,000 -840 Descending FlightAware ADS-B
11:16AM 35.8744 -82.6880 100° East 459 528 25,800 -1,440 Descending FlightAware ADS-B
11:17AM 35.8567 -82.6117 106° East 459 528 25,000 -1,800 Descending FlightAware ADS-B
11:17AM 35.8389 -82.5365 106° East 453 521 24,000 -2,100 Descending FlightAware ADS-B
11:18AM 35.8212 -82.4612 106° East 446 513 22,900 -2,100 Descending FlightAware ADS-B
11:18AM 35.8035 -82.3870 106° East 436 502 21,900 -2,040 Descending FlightAware ADS-B
11:19AM 35.7865 -82.3165 107° East 427 491 20,900 -2,100 Descending FlightAware ADS-B
11:19AM 35.7697 -82.2452 106° East 420 483 19,800 -2,100 Descending FlightAware ADS-B
11:20AM 35.7529 -82.1768 107° East 413 475 18,800 -780 Descending FlightAware ADS-B
11:20AM 35.7390 -82.1150 105° East 414 476 19,000 -1,740 Climbing FlightAware
11:23AM 35.6690 -81.8300 107° East 320 368 13,900 -2,100 Descending FlightAware
11:23AM 35.6630 -81.8080 109° East 315 362 12,500 -1,860 Descending FlightAware
11:24AM 35.6330 -81.6840 107° East 297 342 11,400 -1,200 Descending FlightAware
11:25AM 35.6170 -81.6200 107° East 306 352 11,000 -540 Descending FlightAware
11:25AM 35.5990 -81.5720 115° Southeast 302 348 10,800 -240 Descending FlightAware
11:26AM 35.5690 -81.5250 128° Southeast 299 344 10,800 -480 Level FlightAware
11:26AM 35.5550 -81.4960 121° Southeast 299 344 10,400 -1,680 Descending FlightAware
11:27AM 35.5490 -81.4460 98° East 299 344 9,500 -1,560 Descending FlightAware
11:27AM 35.5440 -81.4010 98° East 296 341 8,900 -1,380 Descending FlightAware
11:27AM 35.5410 -81.3740 98° East 295 339 8,500 -600 Descending FlightAware
11:28AM 35.5370 -81.3390 98° East 295 339 8,500  Level FlightAware
11:28AM 35.5340 -81.3050 96° East 295 339 8,500  Level FlightAware
11:29AM 35.5300 -81.2700 98° East 295 339 8,500 -2,220 Level FlightAware
11:30AM 35.5140 -81.1410 99° East 263 303 5,000 -2,160 Descending FlightAware
11:30AM 35.5100 -81.1070 98° East 263 303 5,000 -240 Level FlightAware
11:31AM 35.5030 -81.0710 103° East 233 268 4,800 -420 Descending FlightAware
11:31AM 35.4890 -81.0280 112° Southeast 224 258 4,600 -660 Descending FlightAware
11:32AM 35.4760 -81.0050 125° Southeast 207 238 4,200 -900 Descending FlightAware
11:32AM 35.4670 -80.9980 148° Southeast 198 228 4,100 -660 Descending FlightAware
11:32AM 35.4530 -80.9900 155° Southeast 187 215 3,900 -600 Descending FlightAware
11:32AM 35.4430 -80.9870 166° South 177 204 3,800 -300 Descending FlightAware
11:32AM 35.4330 -80.9860 175° South 176 203 3,800  Level FlightAware
11:33AM 35.4100 -80.9830 174° South 166 191 3,800 -240 Level FlightAware
11:33AM 35.3850 -80.9810 176° South 166 191 3,600 -660 Descending FlightAware
11:34AM 35.3660 -80.9790 175° South 162 186 3,200 -960 Descending FlightAware
11:34AM 35.3470 -80.9780 178° South 160 184 2,800 -840 Descending FlightAware
11:35AM 35.3270 -80.9760 175° South 159 183 2,500 -780 Descending FlightAware
11:35AM 35.3190 -80.9750 174° South 156 180 2,300 -900 Descending FlightAware
11:35AM 35.2990 -80.9740 178° South 148 170 1,900 -780 Descending FlightAware
11:36AM 35.2750 -80.9720 176° South 144 166 1,500 -720 Descending FlightAware
11:36AM 35.2640 -80.9710 176° South 143 165 1,300 -660 Descending FlightAware
11:37AM 35.2450 -80.9690 175° South 141 162 1,000 -360 Descending FlightAware
11:37AM 35.2290 -80.9680 177° South 141 162 1,000  Level FlightAware